sensor_id;sensor_type;location;lat;lon;timestamp;pressure;altitude;pressure_sealevel;temperature;humidity
9423;BME280;65863;49.506;10.400;2023-05-20T00:01:58;98257.38;;;11.86;78.85
9423;BME280;65863;49.506;10.400;2023-05-20T00:04:42;98249.50;;;11.84;78.54
9423;BME280;65863;49.506;10.400;2023-05-20T00:07:26;98248.38;;;11.80;78.79
9423;BME280;65863;49.506;10.400;2023-05-20T00:10:10;98257.47;;;11.94;78.94
9423;BME280;65863;49.506;10.400;2023-05-20T00:12:54;98230.53;;;11.69;79.01
9423;BME280;65863;49.506;10.400;2023-05-20T00:15:38;98254.09;;;11.59;78.79
9423;BME280;65863;49.506;10.400;2023-05-20T00:18:22;98215.28;;;11.57;78.89
9423;BME280;65863;49.506;10.400;2023-05-20T00:21:06;98228.06;;;11.74;79.12
9423;BME280;65863;49.506;10.400;2023-05-20T00:23:51;98225.50;;;11.83;79.08
9423;BME280;65863;49.506;10.400;2023-05-20T00:26:35;98245.88;;;12.05;79.00
9423;BME280;65863;49.506;10.400;2023-05-20T00:29:20;98244.38;;;12.12;78.72
9423;BME280;65863;49.506;10.400;2023-05-20T00:32:06;98202.25;;;11.83;78.55
9423;BME280;65863;49.506;10.400;2023-05-20T00:34:59;98238.72;;;12.12;78.71
9423;BME280;65863;49.506;10.400;2023-05-20T00:37:43;98207.56;;;11.94;78.76
9423;BME280;65863;49.506;10.400;2023-05-20T00:40:27;98211.13;;;11.95;78.63
9423;BME280;65863;49.506;10.400;2023-05-20T00:43:11;98212.59;;;11.88;78.46
9423;BME280;65863;49.506;10.400;2023-05-20T00:45:55;98219.19;;;11.98;78.65
9423;BME280;65863;49.506;10.400;2023-05-20T00:48:42;98242.31;;;12.20;78.58
9423;BME280;65863;49.506;10.400;2023-05-20T00:51:26;98207.56;;;11.94;78.52
9423;BME280;65863;49.506;10.400;2023-05-20T00:54:11;98196.63;;;11.91;78.60
9423;BME280;65863;49.506;10.400;2023-05-20T00:56:55;98197.41;;;11.91;78.60
9423;BME280;65863;49.506;10.400;2023-05-20T00:59:39;98205.69;;;11.97;78.75
9423;BME280;65863;49.506;10.400;2023-05-20T01:02:23;98210.25;;;12.15;78.71
9423;BME280;65863;49.506;10.400;2023-05-20T01:05:08;98210.03;;;12.13;78.55
9423;BME280;65863;49.506;10.400;2023-05-20T01:07:52;98180.13;;;11.87;78.73
9423;BME280;65863;49.506;10.400;2023-05-20T01:10:41;98189.72;;;11.92;78.93
9423;BME280;65863;49.506;10.400;2023-05-20T01:13:30;98181.44;;;11.86;79.00
9423;BME280;65863;49.506;10.400;2023-05-20T01:16:17;98229.94;;;12.15;79.17
9423;BME280;65863;49.506;10.400;2023-05-20T01:19:07;98201.19;;;11.94;79.48
9423;BME280;65863;49.506;10.400;2023-05-20T01:21:59;98166.03;;;11.71;79.63
9423;BME280;65863;49.506;10.400;2023-05-20T01:24:45;98215.28;;;12.09;79.54
9423;BME280;65863;49.506;10.400;2023-05-20T01:27:31;98208.16;;;12.08;79.69
9423;BME280;65863;49.506;10.400;2023-05-20T01:30:15;98202.31;;;12.06;79.87
9423;BME280;65863;49.506;10.400;2023-05-20T01:33:03;98210.81;;;12.14;80.38
9423;BME280;65863;49.506;10.400;2023-05-20T01:35:47;98195.56;;;12.01;80.23
9423;BME280;65863;49.506;10.400;2023-05-20T01:38:34;98177.72;;;11.91;80.15
9423;BME280;65863;49.506;10.400;2023-05-20T01:41:20;98182.41;;;11.96;80.38
9423;BME280;65863;49.506;10.400;2023-05-20T01:44:06;98210.03;;;12.13;80.38
9423;BME280;65863;49.506;10.400;2023-05-20T01:46:50;98174.91;;;11.91;80.31
9423;BME280;65863;49.506;10.400;2023-05-20T01:49:34;98179.03;;;11.98;80.56
9423;BME280;65863;49.506;10.400;2023-05-20T01:52:22;98203.50;;;12.11;80.46
9423;BME280;65863;49.506;10.400;2023-05-20T01:55:06;98176.63;;;11.94;80.23
9423;BME280;65863;49.506;10.400;2023-05-20T01:57:50;98167.06;;;11.97;80.64
9423;BME280;65863;49.506;10.400;2023-05-20T02:00:34;98161.00;;;11.85;80.34
9423;BME280;65863;49.506;10.400;2023-05-20T02:03:18;98158.75;;;11.92;80.39
9423;BME280;65863;49.506;10.400;2023-05-20T02:06:02;98189.94;;;12.09;80.69
9423;BME280;65863;49.506;10.400;2023-05-20T02:08:47;98147.66;;;11.70;80.87
9423;BME280;65863;49.506;10.400;2023-05-20T02:11:31;98181.50;;;12.01;81.12
9423;BME280;65863;49.506;10.400;2023-05-20T02:14:15;98150.09;;;11.74;80.94
9423;BME280;65863;49.506;10.400;2023-05-20T02:16:59;98200.47;;;12.09;81.07
9423;BME280;65863;49.506;10.400;2023-05-20T02:19:44;98199.91;;;12.10;81.25
9423;BME280;65863;49.506;10.400;2023-05-20T02:22:29;98163.66;;;11.91;81.73
9423;BME280;65863;49.506;10.400;2023-05-20T02:25:13;98183.19;;;12.04;81.63
9423;BME280;65863;49.506;10.400;2023-05-20T02:27:57;98151.25;;;11.79;81.42
9423;BME280;65863;49.506;10.400;2023-05-20T02:30:41;98151.81;;;11.85;81.42
9423;BME280;65863;49.506;10.400;2023-05-20T02:33:25;98170.25;;;11.94;81.55
9423;BME280;65863;49.506;10.400;2023-05-20T02:36:11;98166.63;;;11.93;81.87
9423;BME280;65863;49.506;10.400;2023-05-20T02:38:56;98146.00;;;11.83;81.73
9423;BME280;65863;49.506;10.400;2023-05-20T02:41:39;98173.81;;;11.94;82.13
9423;BME280;65863;49.506;10.400;2023-05-20T02:44:24;98153.13;;;11.84;82.01
9423;BME280;65863;49.506;10.400;2023-05-20T02:47:08;98137.75;;;11.77;81.83
9423;BME280;65863;49.506;10.400;2023-05-20T02:49:51;98155.00;;;11.89;82.57
9423;BME280;65863;49.506;10.400;2023-05-20T02:52:35;98145.22;;;11.75;82.55
9423;BME280;65863;49.506;10.400;2023-05-20T02:55:20;98159.16;;;11.88;82.54
9423;BME280;65863;49.506;10.400;2023-05-20T02:58:06;98175.53;;;12.05;82.72
9423;BME280;65863;49.506;10.400;2023-05-20T03:00:52;98171.50;;;11.85;82.75
9423;BME280;65863;49.506;10.400;2023-05-20T03:03:37;98160.22;;;11.77;82.92
9423;BME280;65863;49.506;10.400;2023-05-20T03:06:22;98196.69;;;11.98;82.83
9423;BME280;65863;49.506;10.400;2023-05-20T03:09:06;98145.97;;;11.67;83.33
9423;BME280;65863;49.506;10.400;2023-05-20T03:11:51;98145.97;;;11.67;83.31
9423;BME280;65863;49.506;10.400;2023-05-20T03:14:35;98188.44;;;12.00;83.41
9423;BME280;65863;49.506;10.400;2023-05-20T03:17:22;98159.75;;;11.94;83.50
9423;BME280;65863;49.506;10.400;2023-05-20T03:20:06;98147.69;;;11.86;83.32
9423;BME280;65863;49.506;10.400;2023-05-20T03:22:51;98174.22;;;12.14;83.00
9423;BME280;65863;49.506;10.400;2023-05-20T03:25:36;98182.47;;;12.12;82.88
9423;BME280;65863;49.506;10.400;2023-05-20T03:28:20;98152.41;;;11.91;83.06
9423;BME280;65863;49.506;10.400;2023-05-20T03:31:04;98192.06;;;12.16;83.14
9423;BME280;65863;49.506;10.400;2023-05-20T03:33:49;98186.22;;;12.07;83.07
9423;BME280;65863;49.506;10.400;2023-05-20T03:36:33;98182.06;;;12.00;83.03
9423;BME280;65863;49.506;10.400;2023-05-20T03:39:19;98175.31;;;11.95;83.07
9423;BME280;65863;49.506;10.400;2023-05-20T03:42:04;98174.31;;;11.85;83.13
9423;BME280;65863;49.506;10.400;2023-05-20T03:44:48;98179.81;;;11.98;83.15
9423;BME280;65863;49.506;10.400;2023-05-20T03:47:33;98189.22;;;12.01;83.12
9423;BME280;65863;49.506;10.400;2023-05-20T03:50:17;98187.13;;;11.94;83.11
9423;BME280;65863;49.506;10.400;2023-05-20T03:53:01;98168.84;;;11.71;83.63
9423;BME280;65863;49.506;10.400;2023-05-20T03:55:51;98174.13;;;11.75;83.82
9423;BME280;65863;49.506;10.400;2023-05-20T03:58:35;98157.75;;;11.58;84.11
9423;BME280;65863;49.506;10.400;2023-05-20T04:01:22;98143.25;;;11.46;84.55
9423;BME280;65863;49.506;10.400;2023-05-20T04:04:08;98161.81;;;11.49;84.91
9423;BME280;65863;49.506;10.400;2023-05-20T04:06:52;98162.22;;;11.53;84.98
9423;BME280;65863;49.506;10.400;2023-05-20T04:09:37;98175.53;;;11.53;85.45
9423;BME280;65863;49.506;10.400;2023-05-20T04:12:22;98156.19;;;11.42;85.63
9423;BME280;65863;49.506;10.400;2023-05-20T04:15:06;98177.97;;;11.57;85.64
9423;BME280;65863;49.506;10.400;2023-05-20T04:17:58;98164.69;;;11.57;85.63
9423;BME280;65863;49.506;10.400;2023-05-20T04:20:45;98193.81;;;11.91;85.87
9423;BME280;65863;49.506;10.400;2023-05-20T04:23:32;98198.00;;;11.97;85.42
9423;BME280;65863;49.506;10.400;2023-05-20T04:26:16;98162.09;;;11.75;85.48
9423;BME280;65863;49.506;10.400;2023-05-20T04:29:01;98164.34;;;11.68;85.65
9423;BME280;65863;49.506;10.400;2023-05-20T04:31:47;98146.50;;;11.58;85.72
9423;BME280;65863;49.506;10.400;2023-05-20T04:34:31;98168.84;;;11.71;85.69
9423;BME280;65863;49.506;10.400;2023-05-20T04:37:18;98180.66;;;11.78;85.75
9423;BME280;65863;49.506;10.400;2023-05-20T04:40:02;98153.28;;;11.70;85.84
9423;BME280;65863;49.506;10.400;2023-05-20T04:42:50;98182.41;;;11.96;85.43
9423;BME280;65863;49.506;10.400;2023-05-20T04:45:33;98161.41;;;11.89;85.50
9423;BME280;65863;49.506;10.400;2023-05-20T04:48:19;98156.94;;;11.94;85.34
9423;BME280;65863;49.506;10.400;2023-05-20T04:51:03;98196.94;;;12.23;85.14
9423;BME280;65863;49.506;10.400;2023-05-20T04:53:48;98169.34;;;12.07;84.98
9423;BME280;65863;49.506;10.400;2023-05-20T04:56:33;98154.13;;;12.10;84.78
9423;BME280;65863;49.506;10.400;2023-05-20T04:59:17;98186.97;;;12.30;84.82
9423;BME280;65863;49.506;10.400;2023-05-20T05:02:02;98154.50;;;12.06;84.53
9423;BME280;65863;49.506;10.400;2023-05-20T05:04:46;98147.56;;;11.99;84.72
9423;BME280;65863;49.506;10.400;2023-05-20T05:07:30;98165.56;;;12.12;84.58
9423;BME280;65863;49.506;10.400;2023-05-20T05:10:15;98183.44;;;12.22;84.67
9423;BME280;65863;49.506;10.400;2023-05-20T05:13:00;98177.06;;;12.37;84.89
9423;BME280;65863;49.506;10.400;2023-05-20T05:15:44;98171.41;;;12.60;84.96
9423;BME280;65863;49.506;10.400;2023-05-20T05:18:29;98179.44;;;13.10;84.44
9423;BME280;65863;49.506;10.400;2023-05-20T05:21:13;98175.16;;;13.65;83.57
9423;BME280;65863;49.506;10.400;2023-05-20T05:23:59;98157.91;;;14.44;82.11
9423;BME280;65863;49.506;10.400;2023-05-20T05:26:43;98151.19;;;15.53;79.33
9423;BME280;65863;49.506;10.400;2023-05-20T05:29:27;98149.97;;;15.73;74.95
9423;BME280;65863;49.506;10.400;2023-05-20T05:32:11;98169.44;;;15.87;72.37
9423;BME280;65863;49.506;10.400;2023-05-20T05:34:56;98113.69;;;15.35;70.91
9423;BME280;65863;49.506;10.400;2023-05-20T05:37:40;98169.25;;;15.40;70.88
9423;BME280;65863;49.506;10.400;2023-05-20T05:40:26;98168.91;;;15.01;71.21
9423;BME280;65863;49.506;10.400;2023-05-20T05:43:11;98152.41;;;14.46;72.65
9423;BME280;65863;49.506;10.400;2023-05-20T05:45:55;98172.31;;;14.56;73.54
9423;BME280;65863;49.506;10.400;2023-05-20T05:48:39;98147.53;;;14.22;74.14
9423;BME280;65863;49.506;10.400;2023-05-20T05:51:26;98132.97;;;14.08;74.74
9423;BME280;65863;49.506;10.400;2023-05-20T05:54:12;98135.88;;;13.92;75.28
9423;BME280;65863;49.506;10.400;2023-05-20T05:56:56;98141.47;;;14.00;75.74
9423;BME280;65863;49.506;10.400;2023-05-20T05:59:42;98140.28;;;14.11;76.09
9423;BME280;65863;49.506;10.400;2023-05-20T06:02:26;98163.38;;;14.42;76.02
9423;BME280;65863;49.506;10.400;2023-05-20T06:05:11;98158.03;;;14.97;75.62
9423;BME280;65863;49.506;10.400;2023-05-20T06:07:55;98157.13;;;16.76;73.72
9423;BME280;65863;49.506;10.400;2023-05-20T06:10:40;98136.81;;;17.97;68.27
9423;BME280;65863;49.506;10.400;2023-05-20T06:13:24;98125.63;;;18.83;63.90
9423;BME280;65863;49.506;10.400;2023-05-20T06:16:08;98126.19;;;18.91;60.33
9423;BME280;65863;49.506;10.400;2023-05-20T06:18:52;98120.91;;;19.65;59.07
9423;BME280;65863;49.506;10.400;2023-05-20T06:21:40;98127.09;;;20.06;56.30
9423;BME280;65863;49.506;10.400;2023-05-20T06:24:24;98138.16;;;20.36;55.95
9423;BME280;65863;49.506;10.400;2023-05-20T06:27:08;98112.34;;;20.45;55.33
9423;BME280;65863;49.506;10.400;2023-05-20T06:29:52;98126.97;;;20.40;54.53
9423;BME280;65863;49.506;10.400;2023-05-20T06:32:36;98119.44;;;20.44;54.87
9423;BME280;65863;49.506;10.400;2023-05-20T06:35:20;98128.97;;;20.25;54.89
9423;BME280;65863;49.506;10.400;2023-05-20T06:38:04;98104.31;;;20.30;54.38
9423;BME280;65863;49.506;10.400;2023-05-20T06:40:50;98103.44;;;19.92;54.82
9423;BME280;65863;49.506;10.400;2023-05-20T06:43:34;98106.09;;;19.78;55.84
9423;BME280;65863;49.506;10.400;2023-05-20T06:46:46;98107.63;;;20.03;56.34
9423;BME280;65863;49.506;10.400;2023-05-20T06:49:32;98089.66;;;20.00;55.87
9423;BME280;65863;49.506;10.400;2023-05-20T06:52:17;98105.56;;;20.39;54.34
9423;BME280;65863;49.506;10.400;2023-05-20T06:55:03;98114.84;;;20.04;55.06
9423;BME280;65863;49.506;10.400;2023-05-20T06:57:47;98127.72;;;19.26;55.79
9423;BME280;65863;49.506;10.400;2023-05-20T07:00:34;98117.66;;;18.91;57.97
9423;BME280;65863;49.506;10.400;2023-05-20T07:03:19;98124.25;;;19.61;56.13
9423;BME280;65863;49.506;10.400;2023-05-20T07:06:04;98108.53;;;19.60;56.46
9423;BME280;65863;49.506;10.400;2023-05-20T07:08:48;98100.97;;;19.65;56.48
9423;BME280;65863;49.506;10.400;2023-05-20T07:11:33;98089.19;;;20.04;55.73
9423;BME280;65863;49.506;10.400;2023-05-20T07:14:17;98075.06;;;19.82;54.94
9423;BME280;65863;49.506;10.400;2023-05-20T07:17:03;98075.28;;;19.29;55.99
9423;BME280;65863;49.506;10.400;2023-05-20T07:19:49;98076.56;;;19.50;56.65
9423;BME280;65863;49.506;10.400;2023-05-20T07:22:32;98069.19;;;19.68;56.70
9423;BME280;65863;49.506;10.400;2023-05-20T07:25:26;98073.69;;;20.07;56.90
9423;BME280;65863;49.506;10.400;2023-05-20T07:28:10;98068.91;;;19.52;57.02
9423;BME280;65863;49.506;10.400;2023-05-20T07:30:54;98073.03;;;19.27;58.25
9423;BME280;65863;49.506;10.400;2023-05-20T07:33:43;98045.88;;;18.81;58.61
9423;BME280;65863;49.506;10.400;2023-05-20T07:36:27;98085.81;;;18.62;59.50
9423;BME280;65863;49.506;10.400;2023-05-20T07:39:14;98071.00;;;18.41;60.32
9423;BME280;65863;49.506;10.400;2023-05-20T07:41:58;98037.44;;;17.87;61.64
9423;BME280;65863;49.506;10.400;2023-05-20T07:44:42;98070.28;;;18.00;61.79
9423;BME280;65863;49.506;10.400;2023-05-20T07:47:27;98088.81;;;18.32;61.97
9423;BME280;65863;49.506;10.400;2023-05-20T07:50:11;98082.25;;;18.30;62.47
9423;BME280;65863;49.506;10.400;2023-05-20T07:52:55;98066.44;;;18.48;62.61
9423;BME280;65863;49.506;10.400;2023-05-20T07:55:40;98044.25;;;18.56;62.08
9423;BME280;65863;49.506;10.400;2023-05-20T07:58:25;98043.97;;;18.74;61.12
9423;BME280;65863;49.506;10.400;2023-05-20T08:01:09;98040.59;;;18.66;61.46
9423;BME280;65863;49.506;10.400;2023-05-20T08:03:54;98069.09;;;18.78;60.29
9423;BME280;65863;49.506;10.400;2023-05-20T08:06:40;98045.63;;;18.02;61.20
9423;BME280;65863;49.506;10.400;2023-05-20T08:09:30;98063.00;;;18.50;61.70
9423;BME280;65863;49.506;10.400;2023-05-20T08:12:15;98041.22;;;18.11;61.55
9423;BME280;65863;49.506;10.400;2023-05-20T08:15:00;98074.28;;;18.38;62.05
9423;BME280;65863;49.506;10.400;2023-05-20T08:17:44;98042.03;;;18.33;61.20
9423;BME280;65863;49.506;10.400;2023-05-20T08:20:28;98049.69;;;18.96;61.68
9423;BME280;65863;49.506;10.400;2023-05-20T08:23:14;98046.09;;;18.30;61.09
9423;BME280;65863;49.506;10.400;2023-05-20T08:25:59;98061.03;;;19.29;61.55
9423;BME280;65863;49.506;10.400;2023-05-20T08:28:47;98039.16;;;19.32;60.51
9423;BME280;65863;49.506;10.400;2023-05-20T08:31:34;98022.88;;;18.77;60.50
9423;BME280;65863;49.506;10.400;2023-05-20T08:34:18;98034.22;;;18.34;60.43
9423;BME280;65863;49.506;10.400;2023-05-20T08:37:03;97976.41;;;18.84;60.98
9423;BME280;65863;49.506;10.400;2023-05-20T08:39:47;98012.72;;;19.65;59.35
9423;BME280;65863;49.506;10.400;2023-05-20T08:42:32;98035.59;;;19.43;58.57
9423;BME280;65863;49.506;10.400;2023-05-20T08:45:18;98034.44;;;18.91;58.07
9423;BME280;65863;49.506;10.400;2023-05-20T08:48:05;98028.44;;;18.53;58.94
9423;BME280;65863;49.506;10.400;2023-05-20T08:50:50;98046.53;;;18.27;60.07
9423;BME280;65863;49.506;10.400;2023-05-20T08:53:34;98029.66;;;18.50;60.50
9423;BME280;65863;49.506;10.400;2023-05-20T08:56:19;98021.00;;;19.03;60.32
9423;BME280;65863;49.506;10.400;2023-05-20T08:59:05;98018.50;;;18.98;59.31
9423;BME280;65863;49.506;10.400;2023-05-20T09:01:49;98035.66;;;18.88;58.78
9423;BME280;65863;49.506;10.400;2023-05-20T09:04:33;98022.72;;;18.97;58.21
9423;BME280;65863;49.506;10.400;2023-05-20T09:07:27;98033.53;;;19.10;58.60
9423;BME280;65863;49.506;10.400;2023-05-20T09:10:11;98016.28;;;18.96;57.96
9423;BME280;65863;49.506;10.400;2023-05-20T09:12:56;98054.13;;;18.99;58.19
9423;BME280;65863;49.506;10.400;2023-05-20T09:15:40;98027.84;;;19.10;58.91
9423;BME280;65863;49.506;10.400;2023-05-20T09:18:24;98048.28;;;19.64;58.83
9423;BME280;65863;49.506;10.400;2023-05-20T09:21:09;98051.41;;;19.91;57.80
9423;BME280;65863;49.506;10.400;2023-05-20T09:23:55;98059.84;;;20.25;56.04
9423;BME280;65863;49.506;10.400;2023-05-20T09:26:42;98046.69;;;20.20;55.36
9423;BME280;65863;49.506;10.400;2023-05-20T09:29:26;98052.66;;;20.12;55.51
9423;BME280;65863;49.506;10.400;2023-05-20T09:32:10;98048.44;;;19.89;56.52
9423;BME280;65863;49.506;10.400;2023-05-20T09:34:55;98030.38;;;19.97;55.98
9423;BME280;65863;49.506;10.400;2023-05-20T09:37:42;98038.91;;;19.97;56.08
9423;BME280;65863;49.506;10.400;2023-05-20T09:40:28;98045.81;;;20.41;55.34
9423;BME280;65863;49.506;10.400;2023-05-20T09:43:11;98043.97;;;20.34;55.20
9423;BME280;65863;49.506;10.400;2023-05-20T09:45:56;98033.31;;;19.99;56.31
9423;BME280;65863;49.506;10.400;2023-05-20T09:48:43;98006.94;;;20.10;55.34
9423;BME280;65863;49.506;10.400;2023-05-20T09:51:27;98029.53;;;20.55;54.78
9423;BME280;65863;49.506;10.400;2023-05-20T09:54:12;98033.06;;;20.91;53.74
9423;BME280;65863;49.506;10.400;2023-05-20T09:56:58;98016.78;;;21.45;53.29
9423;BME280;65863;49.506;10.400;2023-05-20T09:59:43;98013.59;;;21.79;52.54
9423;BME280;65863;49.506;10.400;2023-05-20T10:02:27;98023.03;;;21.95;49.83
9423;BME280;65863;49.506;10.400;2023-05-20T10:05:15;98008.06;;;21.83;50.78
9423;BME280;65863;49.506;10.400;2023-05-20T10:08:23;98003.34;;;22.43;50.88
9423;BME280;65863;49.506;10.400;2023-05-20T10:20:48;98003.56;;;22.33;49.47
9423;BME280;65863;49.506;10.400;2023-05-20T10:23:32;97991.19;;;22.43;49.60
9423;BME280;65863;49.506;10.400;2023-05-20T10:26:17;97964.88;;;22.32;49.82
9423;BME280;65863;49.506;10.400;2023-05-20T10:29:01;97978.66;;;22.22;49.30
9423;BME280;65863;49.506;10.400;2023-05-20T10:31:56;97970.38;;;22.56;48.70
9423;BME280;65863;49.506;10.400;2023-05-20T10:34:48;97981.59;;;22.66;48.98
9423;BME280;65863;49.506;10.400;2023-05-20T10:37:40;97990.28;;;23.28;48.23
9423;BME280;65863;49.506;10.400;2023-05-20T10:40:25;97928.66;;;23.43;47.16
9423;BME280;65863;49.506;10.400;2023-05-20T10:43:13;97965.97;;;23.13;47.05
9423;BME280;65863;49.506;10.400;2023-05-20T10:45:57;97946.75;;;23.15;46.74
9423;BME280;65863;49.506;10.400;2023-05-20T10:48:42;97961.16;;;23.17;47.42
9423;BME280;65863;49.506;10.400;2023-05-20T10:51:28;97973.00;;;23.42;46.91
9423;BME280;65863;49.506;10.400;2023-05-20T10:54:14;97954.34;;;23.88;46.36
9423;BME280;65863;49.506;10.400;2023-05-20T10:56:58;97954.94;;;24.19;46.04
9423;BME280;65863;49.506;10.400;2023-05-20T10:59:42;97945.03;;;23.88;46.02
9423;BME280;65863;49.506;10.400;2023-05-20T11:02:26;97934.16;;;24.02;45.83
9423;BME280;65863;49.506;10.400;2023-05-20T11:05:11;97963.56;;;22.63;47.55
9423;BME280;65863;49.506;10.400;2023-05-20T11:08:05;97974.56;;;22.69;47.85
9423;BME280;65863;49.506;10.400;2023-05-20T11:10:50;97951.50;;;22.07;47.59
9423;BME280;65863;49.506;10.400;2023-05-20T11:13:34;97948.09;;;21.83;49.78
9423;BME280;65863;49.506;10.400;2023-05-20T11:16:19;97941.41;;;22.20;49.78
9423;BME280;65863;49.506;10.400;2023-05-20T11:19:06;97919.78;;;22.31;48.26
9423;BME280;65863;49.506;10.400;2023-05-20T11:21:51;97922.88;;;22.95;48.00
9423;BME280;65863;49.506;10.400;2023-05-20T11:24:36;97942.59;;;22.73;49.14
9423;BME280;65863;49.506;10.400;2023-05-20T11:27:20;97928.44;;;22.47;49.70
9423;BME280;65863;49.506;10.400;2023-05-20T11:30:05;97897.91;;;22.65;49.30
9423;BME280;65863;49.506;10.400;2023-05-20T11:32:59;97869.72;;;21.72;49.91
9423;BME280;65863;49.506;10.400;2023-05-20T11:35:45;97928.91;;;21.44;50.65
9423;BME280;65863;49.506;10.400;2023-05-20T11:38:30;97912.22;;;22.08;52.08
9423;BME280;65863;49.506;10.400;2023-05-20T11:41:14;97914.25;;;22.49;49.72
9423;BME280;65863;49.506;10.400;2023-05-20T11:43:59;97931.66;;;22.69;48.61
9423;BME280;65863;49.506;10.400;2023-05-20T11:46:45;97915.91;;;23.14;47.66
9423;BME280;65863;49.506;10.400;2023-05-20T11:49:29;97904.47;;;23.46;46.82
9423;BME280;65863;49.506;10.400;2023-05-20T11:52:21;97884.75;;;23.86;46.26
9423;BME280;65863;49.506;10.400;2023-05-20T11:55:09;97900.19;;;23.95;46.67
9423;BME280;65863;49.506;10.400;2023-05-20T11:57:54;97884.59;;;24.16;44.94
9423;BME280;65863;49.506;10.400;2023-05-20T12:00:39;97878.84;;;24.52;45.39
9423;BME280;65863;49.506;10.400;2023-05-20T12:03:23;97902.78;;;24.40;44.58
9423;BME280;65863;49.506;10.400;2023-05-20T12:06:10;97854.00;;;23.54;45.79
9423;BME280;65863;49.506;10.400;2023-05-20T12:08:54;97882.63;;;23.70;47.10
9423;BME280;65863;49.506;10.400;2023-05-20T12:11:39;97879.66;;;24.36;45.70
9423;BME280;65863;49.506;10.400;2023-05-20T12:14:27;97894.69;;;24.01;45.71
9423;BME280;65863;49.506;10.400;2023-05-20T12:17:11;97890.84;;;23.78;45.23
9423;BME280;65863;49.506;10.400;2023-05-20T12:19:55;97890.13;;;23.78;45.24
9423;BME280;65863;49.506;10.400;2023-05-20T12:22:39;97869.00;;;24.03;45.60
9423;BME280;65863;49.506;10.400;2023-05-20T12:25:24;97877.16;;;23.77;46.30
9423;BME280;65863;49.506;10.400;2023-05-20T12:28:08;97878.75;;;24.14;45.15
9423;BME280;65863;49.506;10.400;2023-05-20T12:30:53;97883.94;;;23.67;45.64
9423;BME280;65863;49.506;10.400;2023-05-20T12:33:37;97878.97;;;23.20;46.30
9423;BME280;65863;49.506;10.400;2023-05-20T12:36:21;97886.53;;;23.45;46.50
9423;BME280;65863;49.506;10.400;2023-05-20T12:39:05;97871.97;;;23.39;46.98
9423;BME280;65863;49.506;10.400;2023-05-20T12:41:50;97873.44;;;23.24;47.19
9423;BME280;65863;49.506;10.400;2023-05-20T12:44:34;97874.19;;;22.63;48.18
9423;BME280;65863;49.506;10.400;2023-05-20T12:47:19;97874.56;;;23.17;49.53
9423;BME280;65863;49.506;10.400;2023-05-20T12:50:03;97870.09;;;23.46;47.42
9423;BME280;65863;49.506;10.400;2023-05-20T12:52:48;97864.00;;;23.06;48.27
9423;BME280;65863;49.506;10.400;2023-05-20T12:55:31;97865.13;;;23.14;47.77
9423;BME280;65863;49.506;10.400;2023-05-20T12:58:15;97852.53;;;23.06;47.31
9423;BME280;65863;49.506;10.400;2023-05-20T13:00:59;97873.63;;;23.28;47.33
9423;BME280;65863;49.506;10.400;2023-05-20T13:03:44;97873.03;;;23.64;47.99
9423;BME280;65863;49.506;10.400;2023-05-20T13:06:29;97876.09;;;24.54;46.83
9423;BME280;65863;49.506;10.400;2023-05-20T13:09:14;97872.44;;;25.27;44.52
9423;BME280;65863;49.506;10.400;2023-05-20T13:11:59;97860.06;;;25.03;43.73
9423;BME280;65863;49.506;10.400;2023-05-20T13:14:43;97862.25;;;24.66;44.69
9423;BME280;65863;49.506;10.400;2023-05-20T13:17:27;97878.84;;;24.16;43.61
9423;BME280;65863;49.506;10.400;2023-05-20T13:20:12;97863.97;;;23.69;44.70
9423;BME280;65863;49.506;10.400;2023-05-20T13:22:55;97849.97;;;23.94;44.16
9423;BME280;65863;49.506;10.400;2023-05-20T13:25:39;97853.53;;;24.10;45.15
9423;BME280;65863;49.506;10.400;2023-05-20T13:28:23;97837.31;;;23.83;46.43
9423;BME280;65863;49.506;10.400;2023-05-20T13:31:07;97865.63;;;23.75;46.91
9423;BME280;65863;49.506;10.400;2023-05-20T13:33:51;97860.44;;;23.71;45.07
9423;BME280;65863;49.506;10.400;2023-05-20T13:36:36;97860.06;;;23.79;46.70
9423;BME280;65863;49.506;10.400;2023-05-20T13:39:20;97846.81;;;23.53;45.13
9423;BME280;65863;49.506;10.400;2023-05-20T13:42:04;97839.63;;;23.20;45.68
9423;BME280;65863;49.506;10.400;2023-05-20T13:44:48;97852.84;;;23.12;46.77
9423;BME280;65863;49.506;10.400;2023-05-20T13:47:32;97851.97;;;23.09;47.36
9423;BME280;65863;49.506;10.400;2023-05-20T13:50:16;97831.03;;;23.20;47.95
9423;BME280;65863;49.506;10.400;2023-05-20T13:53:00;97840.50;;;23.57;47.40
9423;BME280;65863;49.506;10.400;2023-05-20T13:55:44;97849.53;;;23.83;46.68
9423;BME280;65863;49.506;10.400;2023-05-20T13:58:28;97828.53;;;23.79;45.42
9423;BME280;65863;49.506;10.400;2023-05-20T14:01:12;97851.91;;;24.23;45.91
9423;BME280;65863;49.506;10.400;2023-05-20T14:03:56;97826.97;;;24.10;46.07
9423;BME280;65863;49.506;10.400;2023-05-20T14:06:40;97818.44;;;23.94;46.38
9423;BME280;65863;49.506;10.400;2023-05-20T14:09:24;97821.06;;;24.05;45.71
9423;BME280;65863;49.506;10.400;2023-05-20T14:12:09;97826.31;;;23.93;45.98
9423;BME280;65863;49.506;10.400;2023-05-20T14:14:53;97823.59;;;23.63;45.52
9423;BME280;65863;49.506;10.400;2023-05-20T14:17:37;97823.84;;;23.69;45.91
9423;BME280;65863;49.506;10.400;2023-05-20T14:20:22;97817.16;;;23.81;46.73
9423;BME280;65863;49.506;10.400;2023-05-20T14:23:06;97830.63;;;23.94;46.37
9423;BME280;65863;49.506;10.400;2023-05-20T14:25:50;97806.25;;;23.93;46.17
9423;BME280;65863;49.506;10.400;2023-05-20T14:28:34;97818.38;;;23.92;46.35
9423;BME280;65863;49.506;10.400;2023-05-20T14:31:18;97811.91;;;23.75;47.37
9423;BME280;65863;49.506;10.400;2023-05-20T14:34:02;97811.50;;;23.83;47.99
9423;BME280;65863;49.506;10.400;2023-05-20T14:36:46;97808.19;;;23.54;47.64
9423;BME280;65863;49.506;10.400;2023-05-20T14:39:30;97806.22;;;23.25;48.21
9423;BME280;65863;49.506;10.400;2023-05-20T14:42:14;97792.34;;;22.72;48.59
9423;BME280;65863;49.506;10.400;2023-05-20T14:44:58;97784.41;;;22.54;49.63